Time;durP1;ratioP1;P1;durP2;ratioP2;P2;SDS_P1;SDS_P2;PMS_P1;PMS_P2;Temp;Humidity;BMP_temperature;BMP_pressure;BME280_temperature;BME280_humidity;BME280_pressure;Samples;Min_cycle;Max_cycle;Signal;HPM_P1;HPM_P2
2024/01/05 00:01:23;;;;;;;8.77;2.00;;;;;;;12.13;60.23;99669.69;4228471;28;20085;-57
2024/01/05 00:03:24;;;;;;;7.32;2.10;;;;;;;12.14;60.02;99676.66;4229812;28;20048;-57
2024/01/05 00:05:26;;;;;;;6.38;1.60;;;;;;;12.12;60.19;99671.47;4228638;28;20054;-58
2024/01/05 00:07:29;;;;;;;;;;;;;;;12.12;60.16;99692.56;4229982;28;20131;-56
2024/01/05 00:09:30;;;;;;;8.23;1.90;;;;;;;12.11;60.34;99684.75;4229917;28;20426;-57
2024/01/05 00:11:32;;;;;;;7.93;1.73;;;;;;;12.13;60.00;99682.88;4232472;28;20051;-56
2024/01/05 00:13:34;;;;;;;6.75;1.80;;;;;;;12.13;59.87;99683.72;4233396;28;20044;-57
2024/01/05 00:15:35;;;;;;;7.57;2.05;;;;;;;12.14;59.86;99684.59;4233399;28;20059;-55
2024/01/05 00:17:37;;;;;;;5.65;1.50;;;;;;;12.13;59.86;99685.50;4233353;28;20176;-56
2024/01/05 00:19:40;;;;;;;5.32;1.50;;;;;;;12.13;59.92;99686.34;4233172;28;20074;-57
2024/01/05 00:21:42;;;;;;;6.13;1.40;;;;;;;12.12;59.87;99691.72;4232618;28;20043;-57
2024/01/05 00:23:43;;;;;;;5.78;1.60;;;;;;;12.13;60.11;99698.69;4233437;28;20082;-56
2024/01/05 00:25:45;;;;;;;4.45;1.20;;;;;;;12.11;59.76;99687.38;4233110;28;20048;-57
2024/01/05 00:27:47;;;;;;;5.75;1.33;;;;;;;12.14;59.72;99689.84;4233162;28;20047;-57
2024/01/05 00:29:49;;;;;;;5.43;1.48;;;;;;;12.13;59.67;99686.34;4233317;28;20126;-57
2024/01/05 00:31:51;;;;;;;7.30;1.90;;;;;;;12.12;60.02;99681.19;4232986;28;20043;-57
2024/01/05 00:33:53;;;;;;;4.78;1.33;;;;;;;12.10;59.97;99699.72;4233072;28;20044;-57
2024/01/05 00:35:55;;;;;;;5.70;1.65;;;;;;;12.12;59.96;99695.19;4232853;28;20057;-57
2024/01/05 00:37:57;;;;;;;5.38;1.52;;;;;;;12.10;59.73;99683.03;4232829;28;20047;-57
2024/01/05 00:40:02;;;;;;;6.72;1.63;;;;;;;12.13;59.93;99688.97;4232956;28;20078;-57
2024/01/05 00:42:05;;;;;;;6.07;1.50;;;;;;;12.12;59.67;99695.19;4232988;28;20048;-55
2024/01/05 00:44:07;;;;;;;5.60;1.70;;;;;;;12.11;59.73;99697.94;4232796;28;20070;-57
2024/01/05 00:46:09;;;;;;;5.95;1.50;;;;;;;12.10;59.63;99691.81;4232713;28;20048;-58
2024/01/05 00:48:10;;;;;;;;;;;;;;;12.11;59.86;99693.53;4233299;28;20062;-57
2024/01/05 00:50:13;;;;;;;5.50;1.50;;;;;;;12.07;59.93;99702.53;4232787;28;19923;-55
2024/01/05 00:52:14;;;;;;;6.90;1.45;;;;;;;12.11;59.99;99705.84;4232470;28;20137;-56
2024/01/05 00:54:16;;;;;;;4.55;1.30;;;;;;;12.09;59.64;99705.06;4231514;28;20047;-55
2024/01/05 00:56:17;;;;;;;6.15;1.40;;;;;;;12.11;59.59;99709.34;4232644;28;20048;-56
2024/01/05 00:58:19;;;;;;;5.75;1.42;;;;;;;12.11;59.48;99703.19;4232912;28;20067;-56
2024/01/05 01:00:21;;;;;;;5.32;1.38;;;;;;;12.10;59.90;99702.38;4232341;28;20066;-56
2024/01/05 01:02:22;;;;;;;4.65;1.13;;;;;;;12.11;59.45;99708.47;4232318;28;20059;-56
2024/01/05 01:04:24;;;;;;;6.28;1.60;;;;;;;12.11;59.60;99708.47;4232499;28;20114;-56
2024/01/05 01:06:26;;;;;;;5.95;1.13;;;;;;;12.11;59.62;99716.38;4232247;28;20043;-57
2024/01/05 01:08:27;;;;;;;5.03;1.20;;;;;;;12.11;59.43;99719.00;4232513;28;20575;-56
2024/01/05 01:10:29;;;;;;;6.03;1.73;;;;;;;12.10;59.54;99725.22;4232464;28;20456;-57
2024/01/05 01:12:31;;;;;;;4.65;1.17;;;;;;;12.09;59.45;99719.09;4232589;28;20051;-56
2024/01/05 01:14:33;;;;;;;5.20;1.30;;;;;;;12.09;59.56;99719.09;4232335;28;20043;-57
2024/01/05 01:16:34;;;;;;;5.25;1.25;;;;;;;12.10;59.19;99734.00;4232167;28;20055;-60
2024/01/05 01:18:36;;;;;;;6.20;1.30;;;;;;;12.09;59.54;99718.25;4232369;28;20481;-57
2024/01/05 01:20:38;;;;;;;4.88;1.13;;;;;;;12.10;59.36;99735.75;4232065;28;20055;-56
2024/01/05 01:22:40;;;;;;;;;;;;;;;12.07;59.23;99728.88;4232338;28;20135;-57
2024/01/05 01:24:41;;;;;;;5.50;1.50;;;;;;;12.02;59.47;99730.94;4232344;28;20030;-56
2024/01/05 01:26:43;;;;;;;5.05;1.20;;;;;;;12.06;59.59;99732.44;4232179;28;20047;-57
2024/01/05 01:28:45;;;;;;;4.32;1.25;;;;;;;12.05;59.43;99733.38;4232288;28;20045;-55
2024/01/05 01:30:46;;;;;;;4.22;1.10;;;;;;;12.07;59.14;99728.03;4231997;27;20391;-57
2024/01/05 01:32:49;;;;;;;4.88;1.25;;;;;;;12.06;59.52;99737.72;4232158;28;20062;-57
2024/01/05 01:34:54;;;;;;;4.43;1.10;;;;;;;12.07;59.17;99734.16;4231790;28;20050;-57
2024/01/05 01:36:56;;;;;;;5.78;1.30;;;;;;;12.07;59.17;99743.84;4231066;28;20521;-57
2024/01/05 01:38:57;;;;;;;3.92;1.40;;;;;;;12.07;58.88;99746.50;4232198;28;20120;-57
2024/01/05 01:40:59;;;;;;;5.63;1.10;;;;;;;12.06;58.84;99740.34;4232190;28;20493;-56
2024/01/05 01:43:01;;;;;;;4.03;1.20;;;;;;;12.05;58.82;99737.81;4231847;28;20508;-59
2024/01/05 01:45:03;;;;;;;4.22;0.90;;;;;;;12.04;58.93;99744.88;4232152;28;20443;-58
2024/01/05 01:47:05;;;;;;;;;;;;;;;12.04;58.90;99733.47;4231268;28;20052;-58
2024/01/05 01:49:07;;;;;;;4.22;1.00;;;;;;;12.02;58.91;99749.38;4231721;28;20374;-57
2024/01/05 01:51:10;;;;;;;;;;;;;;;12.02;59.11;99744.13;4232229;28;20055;-57
2024/01/05 01:53:18;;;;;;;2.83;0.95;;;;;;;12.00;59.02;99737.25;4231865;28;19920;-58
2024/01/05 01:55:20;;;;;;;3.85;0.80;;;;;;;11.99;58.67;99736.38;4230454;28;20126;-58
2024/01/05 01:57:22;;;;;;;3.17;0.90;;;;;;;12.03;59.00;99748.44;4231779;28;20054;-57
2024/01/05 01:59:24;;;;;;;4.30;1.00;;;;;;;12.02;58.70;99738.84;4231509;28;20044;-57
2024/01/05 02:01:26;;;;;;;;;;;;;;;12.01;58.77;99747.69;4230672;28;20051;-58
2024/01/05 02:03:28;;;;;;;2.42;0.70;;;;;;;11.99;58.79;99749.53;4231280;28;19969;-57
2024/01/05 02:05:30;;;;;;;;;;;;;;;12.00;58.75;99753.06;4232168;27;20050;-58
2024/01/05 02:07:32;;;;;;;3.50;0.80;;;;;;;11.98;58.86;99748.72;4231595;28;20309;-57
2024/01/05 02:09:34;;;;;;;2.92;0.70;;;;;;;12.00;58.53;99761.78;4231621;28;20044;-57
2024/01/05 02:11:37;;;;;;;4.15;0.98;;;;;;;12.01;58.54;99747.69;4231484;28;20402;-58
2024/01/05 02:13:39;;;;;;;3.38;0.85;;;;;;;11.92;58.71;99742.91;4231573;28;20577;-57
2024/01/05 02:15:40;;;;;;;;;;;;;;;11.98;58.45;99751.34;4231819;28;20131;-56
2024/01/05 02:17:42;;;;;;;2.08;0.60;;;;;;;11.98;58.45;99747.84;4231169;28;19924;-57
2024/01/05 02:19:45;;;;;;;4.28;0.70;;;;;;;11.99;58.46;99757.44;4231466;28;20052;-57
2024/01/05 02:21:52;;;;;;;2.30;0.57;;;;;;;12.00;58.50;99751.25;4231143;28;20440;-57
2024/01/05 02:23:54;;;;;;;2.97;0.70;;;;;;;11.97;58.32;99747.00;4231489;28;20043;-57
2024/01/05 02:25:56;;;;;;;2.45;0.60;;;;;;;11.97;58.35;99739.09;4231307;28;20105;-57
2024/01/05 02:27:58;;;;;;;;;;;;;;;11.98;58.23;99743.44;4231776;28;20057;-60
2024/01/05 02:29:59;;;;;;;2.95;0.77;;;;;;;11.96;58.39;99749.72;4231044;28;19959;-57
2024/01/05 02:32:01;;;;;;;2.00;0.65;;;;;;;11.97;58.16;99754.06;4230723;28;20043;-57
2024/01/05 02:34:03;;;;;;;2.78;0.75;;;;;;;11.98;57.99;99746.06;4230099;28;20058;-57
2024/01/05 02:36:10;;;;;;;4.82;1.00;;;;;;;11.98;58.18;99750.47;4229969;28;20130;-58
2024/01/05 02:38:16;;;;;;;1.90;0.80;;;;;;;11.98;58.37;99756.63;4231167;28;20471;-57
2024/01/05 02:40:18;;;;;;;1.70;0.57;;;;;;;11.98;57.87;99746.06;4230953;28;20139;-57
2024/01/05 02:42:20;;;;;;;2.00;0.60;;;;;;;11.98;57.83;99758.38;4231083;28;20059;-56
2024/01/05 02:44:22;;;;;;;2.85;0.80;;;;;;;11.94;58.28;99757.69;4231014;28;20088;-56
2024/01/05 02:46:23;;;;;;;1.13;0.40;;;;;;;11.95;58.28;99758.53;4229467;28;20117;-57
2024/01/05 02:48:25;;;;;;;2.20;0.52;;;;;;;11.96;58.29;99771.66;4231103;28;20105;-55
2024/01/05 02:50:27;;;;;;;3.10;0.60;;;;;;;11.97;57.96;99769.88;4230894;28;20059;-55
2024/01/05 02:52:29;;;;;;;1.90;0.40;;;;;;;11.95;57.80;99762.00;4230858;28;20409;-55
2024/01/05 02:54:31;;;;;;;2.53;0.63;;;;;;;11.95;57.68;99775.19;4230818;28;20044;-57
2024/01/05 02:56:34;;;;;;;2.30;0.50;;;;;;;11.96;57.82;99766.38;4230758;28;20116;-57
2024/01/05 02:58:35;;;;;;;1.15;0.40;;;;;;;11.95;57.87;99761.19;4230544;27;20077;-57
2024/01/05 03:00:38;;;;;;;1.50;0.40;;;;;;;11.96;57.67;99770.78;4231099;28;20075;-55
2024/01/05 03:02:40;;;;;;;;;;;;;;;11.94;57.89;99777.91;4230741;28;20051;-55
2024/01/05 03:04:43;;;;;;;1.52;0.38;;;;;;;11.92;57.99;99780.66;4229767;28;19920;-56
2024/01/05 03:06:48;;;;;;;1.63;0.43;;;;;;;11.94;57.87;99783.19;4230857;27;20044;-57
2024/01/05 03:08:49;;;;;;;2.22;0.50;;;;;;;11.93;57.78;99781.47;4229543;28;20449;-56
2024/01/05 03:10:51;;;;;;;1.92;0.50;;;;;;;11.94;57.78;99777.91;4230533;28;20079;-59
2024/01/05 03:12:53;;;;;;;2.08;0.70;;;;;;;11.92;57.64;99774.50;4230816;28;20054;-57
2024/01/05 03:14:58;;;;;;;2.80;0.52;;;;;;;11.94;57.84;99776.13;4230675;28;20109;-56
2024/01/05 03:17:01;;;;;;;1.42;0.40;;;;;;;11.93;57.51;99785.00;4230209;28;20055;-57
2024/01/05 03:19:03;;;;;;;1.90;0.50;;;;;;;11.95;57.60;99784.91;4230454;28;20094;-57
2024/01/05 03:21:05;;;;;;;;;;;;;;;11.93;57.75;99787.63;4230959;28;20155;-57
2024/01/05 03:23:09;;;;;;;1.77;0.40;;;;;;;11.91;57.94;99776.31;4230599;28;19927;-58
2024/01/05 03:25:11;;;;;;;3.08;0.50;;;;;;;11.92;57.63;99783.28;4230522;28;20046;-55
2024/01/05 03:27:14;;;;;;;1.33;0.35;;;;;;;11.92;57.81;99780.66;4230225;28;20067;-56
2024/01/05 03:29:16;;;;;;;2.50;0.50;;;;;;;11.92;57.67;99785.91;4230582;28;20040;-57
2024/01/05 03:31:22;;;;;;;2.95;0.63;;;;;;;11.93;57.51;99786.75;4229828;28;20058;-55
2024/01/05 03:33:24;;;;;;;1.63;0.50;;;;;;;11.92;57.74;99779.78;4230337;28;20123;-57
2024/01/05 03:35:26;;;;;;;;;;;;;;;11.90;57.85;99782.50;4229353;28;20093;-58
2024/01/05 03:37:28;;;;;;;2.07;0.40;;;;;;;11.86;57.60;99781.00;4230342;28;20378;-57
2024/01/05 03:39:30;;;;;;;1.80;0.57;;;;;;;11.86;57.34;99781.00;4230320;28;20055;-57
2024/01/05 03:41:33;;;;;;;2.17;0.40;;;;;;;11.87;57.43;99782.69;4229046;28;20051;-54
2024/01/05 03:43:35;;;;;;;1.52;0.40;;;;;;;11.90;57.87;99785.16;4229861;28;20131;-59
2024/01/05 03:45:37;;;;;;;0.82;0.35;;;;;;;11.90;57.80;99779.03;4229844;28;20051;-57
2024/01/05 03:47:39;;;;;;;1.55;0.35;;;;;;;11.88;57.48;99773.84;4230300;28;20058;-54
2024/01/05 03:49:41;;;;;;;;;;;;;;;11.87;57.52;99785.34;4230740;28;20047;-57
2024/01/05 03:51:43;;;;;;;1.95;0.50;;;;;;;11.83;57.90;99774.13;4229993;28;19955;-58
2024/01/05 03:53:45;;;;;;;1.83;0.40;;;;;;;11.85;57.43;99779.28;4228887;28;20043;-58
2024/01/05 03:55:47;;;;;;;2.72;0.70;;;;;;;11.87;57.44;99784.47;4228865;28;20045;-59
2024/01/05 03:57:49;;;;;;;2.08;0.50;;;;;;;11.86;57.52;99796.81;4230051;28;20044;-56
2024/01/05 03:59:51;;;;;;;1.75;0.50;;;;;;;11.86;57.54;99806.47;4212760;28;20076;-57
2024/01/05 04:01:53;;;;;;;1.23;0.32;;;;;;;11.85;57.61;99796.88;4213160;28;20150;-56
2024/01/05 04:03:57;;;;;;;2.20;0.40;;;;;;;11.86;57.62;99795.94;4213083;28;20052;-57
2024/01/05 04:05:59;;;;;;;1.15;0.28;;;;;;;11.86;57.40;99809.09;4213241;28;20048;-57
2024/01/05 04:08:01;;;;;;;0.93;0.32;;;;;;;11.85;57.59;99812.69;4213446;28;20131;-57
2024/01/05 04:10:04;;;;;;;1.98;0.38;;;;;;;11.82;57.50;99806.66;4211868;28;20052;-55
2024/01/05 04:12:09;;;;;;;1.52;0.38;;;;;;;11.83;57.60;99811.00;4213286;28;20048;-57
2024/01/05 04:14:11;;;;;;;3.08;0.50;;;;;;;11.83;57.67;99811.00;4212881;28;20048;-57
2024/01/05 04:16:14;;;;;;;;;;;;;;;11.81;57.53;99809.34;4213757;28;20574;-57
2024/01/05 04:18:16;;;;;;;1.50;0.40;;;;;;;11.79;57.59;99816.53;4211749;28;19973;-57
2024/01/05 04:20:18;;;;;;;;;;;;;;;11.79;57.30;99817.34;4213613;28;20056;-56
2024/01/05 04:22:20;;;;;;;2.42;0.52;;;;;;;11.77;57.44;99808.69;4212993;28;20043;-57
2024/01/05 04:24:21;;;;;;;2.03;0.40;;;;;;;11.74;57.19;99802.75;4213169;28;20499;-57
2024/01/05 04:26:23;;;;;;;2.00;0.40;;;;;;;11.79;57.41;99816.53;4213088;28;20071;-56
2024/01/05 04:28:26;;;;;;;1.42;0.40;;;;;;;11.78;57.54;99810.38;4212670;28;20503;-57
2024/01/05 04:30:27;;;;;;;1.33;0.30;;;;;;;11.79;57.21;99808.63;4213124;28;20058;-57
2024/01/05 04:32:33;;;;;;;1.50;0.50;;;;;;;11.78;57.35;99809.53;4213073;28;20056;-56
2024/01/05 04:34:34;;;;;;;2.40;0.40;;;;;;;11.77;57.20;99797.31;4213258;28;20055;-57
2024/01/05 04:36:39;;;;;;;0.75;0.28;;;;;;;11.76;57.40;99796.47;4213039;28;20044;-57
2024/01/05 04:38:42;;;;;;;1.52;0.38;;;;;;;11.76;57.42;99804.38;4213078;28;20480;-57
2024/01/05 04:40:44;;;;;;;2.78;0.57;;;;;;;11.77;57.47;99807.84;4211874;28;20083;-56
2024/01/05 04:42:45;;;;;;;1.83;0.38;;;;;;;11.76;57.59;99804.38;4212583;28;20056;-57
2024/01/05 04:44:49;;;;;;;1.00;0.30;;;;;;;11.76;57.46;99807.00;4212856;28;20142;-56
2024/01/05 04:46:51;;;;;;;2.50;0.52;;;;;;;11.77;57.50;99810.47;4213040;28;20048;-57
2024/01/05 04:48:53;;;;;;;2.58;0.40;;;;;;;11.75;57.61;99812.34;4211558;28;20040;-57
2024/01/05 04:50:55;;;;;;;1.90;0.50;;;;;;;11.75;57.41;99809.69;4212970;28;20044;-57
2024/01/05 04:52:57;;;;;;;3.97;0.50;;;;;;;11.74;57.25;99813.28;4212776;28;20050;-57
2024/01/05 04:55:01;;;;;;;2.15;0.43;;;;;;;11.76;57.39;99824.56;4211554;28;20051;-57
2024/01/05 04:57:06;;;;;;;2.03;0.30;;;;;;;11.73;57.08;99816.88;4212897;28;20141;-56
2024/01/05 04:59:08;;;;;;;2.90;0.50;;;;;;;11.74;57.32;99822.03;4215582;28;20059;-56
2024/01/05 05:01:10;;;;;;;2.05;0.40;;;;;;;11.72;57.44;99821.25;4215701;28;20399;-57
2024/01/05 05:03:13;;;;;;;1.60;0.50;;;;;;;11.73;57.39;99825.59;4214612;28;20477;-57
2024/01/05 05:05:16;;;;;;;1.67;0.32;;;;;;;11.73;57.19;99822.13;4215774;28;20097;-56
2024/01/05 05:07:17;;;;;;;1.52;0.45;;;;;;;11.73;57.28;99827.41;4215797;28;20048;-57
2024/01/05 05:09:20;;;;;;;2.58;0.40;;;;;;;11.72;57.49;99823.91;4215919;28;20132;-54
2024/01/05 05:11:25;;;;;;;2.38;0.43;;;;;;;11.73;57.51;99832.66;4215626;28;20459;-55
2024/01/05 05:13:27;;;;;;;1.90;0.57;;;;;;;11.72;57.31;99831.81;4215581;28;20044;-56
2024/01/05 05:15:29;;;;;;;2.28;0.47;;;;;;;11.73;57.55;99830.88;4215692;28;20050;-57
2024/01/05 05:17:31;;;;;;;2.53;0.50;;;;;;;11.71;57.57;99827.47;4215789;28;20477;-57
2024/01/05 05:19:33;;;;;;;2.78;0.60;;;;;;;11.70;57.21;99827.56;4215701;28;20048;-57
2024/01/05 05:21:36;;;;;;;1.73;0.45;;;;;;;11.71;57.19;99835.38;4215647;28;20054;-56
2024/01/05 05:23:39;;;;;;;;;;;;;;;11.69;57.30;99833.75;4215966;28;20545;-57
2024/01/05 05:25:43;;;;;;;2.50;0.43;;;;;;;11.67;57.31;99837.31;4215240;28;19920;-57
2024/01/05 05:27:45;;;;;;;2.80;0.68;;;;;;;11.69;57.41;99833.75;4215157;28;20051;-56
2024/01/05 05:29:47;;;;;;;2.33;0.47;;;;;;;11.69;57.24;99831.13;4215089;28;20082;-57
2024/01/05 05:31:49;;;;;;;1.75;0.52;;;;;;;11.69;57.43;99833.75;4215292;28;20120;-55
2024/01/05 05:33:50;;;;;;;1.40;0.35;;;;;;;11.67;57.15;99832.03;4215172;28;20051;-54
2024/01/05 05:35:52;;;;;;;1.90;0.50;;;;;;;11.67;57.17;99832.03;4215226;28;20052;-58
2024/01/05 05:37:55;;;;;;;1.70;0.40;;;;;;;11.65;57.19;99825.16;4215061;28;20052;-56
2024/01/05 05:39:57;;;;;;;1.63;0.50;;;;;;;11.69;57.23;99826.72;4215168;28;20043;-57
2024/01/05 05:41:59;;;;;;;4.53;0.70;;;;;;;11.67;57.13;99824.16;4214751;28;20126;-58
2024/01/05 05:44:01;;;;;;;2.13;0.40;;;;;;;11.66;57.34;99830.38;4214980;28;20070;-57
2024/01/05 05:46:03;;;;;;;1.98;0.40;;;;;;;11.66;57.16;99829.50;4214901;28;20059;-58
2024/01/05 05:48:05;;;;;;;1.85;0.50;;;;;;;11.68;57.67;99838.19;4215225;28;20130;-57
2024/01/05 05:50:07;;;;;;;3.63;0.85;;;;;;;11.65;57.27;99827.78;4214782;28;20558;-58
2024/01/05 05:52:09;;;;;;;3.35;0.57;;;;;;;11.66;57.21;99833.00;4215033;28;20044;-57
2024/01/05 05:54:11;;;;;;;2.22;0.45;;;;;;;11.66;57.27;99827.72;4215093;28;20047;-57
2024/01/05 05:56:13;;;;;;;2.67;0.47;;;;;;;11.63;57.29;99833.16;4214572;28;20473;-57
2024/01/05 05:58:14;;;;;;;2.58;0.40;;;;;;;11.64;57.31;99837.50;4214959;28;20072;-58
2024/01/05 06:00:16;;;;;;;2.65;0.60;;;;;;;11.65;57.36;99836.56;4214652;28;20052;-57
2024/01/05 06:02:18;;;;;;;1.60;0.50;;;;;;;11.62;57.28;99841.16;4214916;28;20474;-57
2024/01/05 06:04:20;;;;;;;2.85;0.57;;;;;;;11.64;57.13;99853.31;4214561;28;20423;-57
2024/01/05 06:06:23;;;;;;;2.55;0.50;;;;;;;11.64;57.57;99853.31;4213591;28;20048;-57
2024/01/05 06:08:25;;;;;;;1.77;0.60;;;;;;;11.63;57.46;99856.84;4214687;28;20059;-56
2024/01/05 06:10:27;;;;;;;2.72;0.60;;;;;;;11.63;56.92;99867.41;4214309;28;20051;-58
2024/01/05 06:12:28;;;;;;;2.45;0.47;;;;;;;11.63;57.01;99866.56;4214586;28;20087;-56
2024/01/05 06:14:33;;;;;;;2.40;0.65;;;;;;;11.62;57.34;99870.97;4214749;28;20051;-54
2024/01/05 06:16:35;;;;;;;2.88;0.57;;;;;;;11.62;57.52;99870.13;4214635;28;20048;-53
2024/01/05 06:18:38;;;;;;;2.35;0.50;;;;;;;11.62;57.59;99870.97;4214445;28;20050;-54
2024/01/05 06:20:40;;;;;;;2.17;0.55;;;;;;;11.59;57.28;99870.28;4214584;28;20461;-54
2024/01/05 06:22:42;;;;;;;3.47;0.50;;;;;;;11.62;57.29;99880.66;4214334;28;20044;-56
2024/01/05 06:24:44;;;;;;;2.35;0.52;;;;;;;11.61;57.11;99879.78;4214139;28;20055;-57
2024/01/05 06:26:46;;;;;;;1.95;0.60;;;;;;;11.62;57.04;99881.50;4213093;28;20118;-57
2024/01/05 06:28:48;;;;;;;2.90;0.60;;;;;;;11.63;57.34;99887.63;4214418;28;20040;-56
2024/01/05 06:30:50;;;;;;;2.03;0.47;;;;;;;11.61;57.44;99885.06;4214258;28;20052;-57
2024/01/05 06:32:51;;;;;;;3.30;0.50;;;;;;;11.60;57.19;99875.44;4214227;28;20487;-60
2024/01/05 06:34:53;;;;;;;2.15;0.60;;;;;;;11.60;57.18;99880.72;4214344;28;20549;-56
2024/01/05 06:36:55;;;;;;;1.70;0.52;;;;;;;11.61;57.22;99876.31;4214247;28;20109;-56
2024/01/05 06:38:57;;;;;;;2.35;0.68;;;;;;;11.58;57.16;99877.34;4213737;28;20051;-56
2024/01/05 06:40:58;;;;;;;2.38;0.47;;;;;;;11.58;57.15;99879.09;4214388;28;20360;-55
2024/01/05 06:43:00;;;;;;;2.35;0.52;;;;;;;11.58;56.88;99882.59;4214113;28;20504;-55
2024/01/05 06:45:02;;;;;;;2.08;0.43;;;;;;;11.58;56.87;99881.72;4214125;28;20040;-56
2024/01/05 06:47:04;;;;;;;2.80;0.68;;;;;;;11.56;57.27;99878.34;4213978;28;20104;-57
2024/01/05 06:49:06;;;;;;;2.65;0.50;;;;;;;11.57;57.32;99880.03;4214179;28;20052;-56
2024/01/05 06:51:08;;;;;;;3.25;0.60;;;;;;;11.57;57.11;99886.16;4213864;28;20082;-56
2024/01/05 06:53:10;;;;;;;2.05;0.45;;;;;;;11.57;56.89;99883.53;4213589;28;20135;-56
2024/01/05 06:55:11;;;;;;;1.58;0.50;;;;;;;11.56;57.26;99884.47;4213628;28;20101;-56
2024/01/05 06:57:13;;;;;;;2.03;0.47;;;;;;;11.57;57.42;99893.19;4213851;28;20483;-56
2024/01/05 06:59:16;;;;;;;2.40;0.50;;;;;;;11.56;57.12;99887.09;4213563;28;20059;-56
2024/01/05 07:01:17;;;;;;;1.88;0.60;;;;;;;11.57;57.15;99895.81;4213915;28;20094;-56
2024/01/05 07:03:19;;;;;;;3.20;0.75;;;;;;;11.56;57.40;99891.53;4212459;28;20047;-56
2024/01/05 07:05:21;;;;;;;2.33;0.45;;;;;;;11.55;57.38;99900.34;4213608;28;20048;-57
2024/01/05 07:07:23;;;;;;;2.72;0.50;;;;;;;11.56;56.91;99899.41;4213361;28;20417;-56
2024/01/05 07:09:25;;;;;;;1.73;0.50;;;;;;;11.54;57.24;99901.28;4213991;28;20517;-56
2024/01/05 07:11:27;;;;;;;1.60;0.60;;;;;;;11.51;57.37;99907.56;4213963;28;20040;-55
2024/01/05 07:13:29;;;;;;;2.55;0.50;;;;;;;11.55;57.34;99908.25;4213733;28;20047;-56
2024/01/05 07:15:30;;;;;;;2.05;0.50;;;;;;;11.46;57.34;99899.88;4213642;28;20044;-55
2024/01/05 07:17:32;;;;;;;3.75;0.50;;;;;;;11.53;57.28;99918.00;4212324;28;20044;-56
2024/01/05 07:19:34;;;;;;;3.50;0.80;;;;;;;11.51;57.05;99907.56;4213182;28;20048;-55
2024/01/05 07:21:43;;;;;;;2.60;0.70;;;;;;;11.51;57.30;99916.28;4213689;28;20048;-55
2024/01/05 07:23:46;;;;;;;3.17;0.52;;;;;;;11.53;57.22;99918.00;4213173;28;20052;-54
2024/01/05 07:25:47;;;;;;;3.22;0.70;;;;;;;11.51;57.05;99918.09;4213579;28;20120;-57
2024/01/05 07:27:49;;;;;;;2.58;0.70;;;;;;;11.50;57.00;99924.28;4212289;28;20078;-58
2024/01/05 07:29:51;;;;;;;2.42;0.70;;;;;;;11.51;57.15;99926.81;4213289;28;20044;-58
2024/01/05 07:31:52;;;;;;;2.10;0.50;;;;;;;11.51;57.17;99939.16;4213310;28;20040;-57
2024/01/05 07:33:54;;;;;;;3.08;0.65;;;;;;;11.50;56.98;99929.53;4212596;28;20131;-57
2024/01/05 07:35:56;;;;;;;4.32;0.50;;;;;;;11.49;57.16;99928.72;4213186;28;20052;-55
2024/01/05 07:37:58;;;;;;;1.95;0.60;;;;;;;11.49;57.36;99930.47;4212968;28;20048;-56
2024/01/05 07:39:59;;;;;;;3.17;0.70;;;;;;;11.50;57.32;99933.03;4213321;28;20048;-57
2024/01/05 07:42:02;;;;;;;1.40;0.60;;;;;;;11.50;57.42;99940.06;4213439;28;20048;-56
2024/01/05 07:44:04;;;;;;;;;;;;;;;11.47;57.33;99929.69;4213519;28;20113;-57
2024/01/05 07:46:06;;;;;;;2.53;0.67;;;;;;;11.46;57.44;99935.91;4213284;28;19927;-57
2024/01/05 07:48:08;;;;;;;2.70;0.80;;;;;;;11.45;57.05;99931.56;4213377;28;20286;-58
2024/01/05 07:50:10;;;;;;;1.92;0.50;;;;;;;11.44;57.52;99930.72;4212182;28;20161;-57
2024/01/05 07:52:12;;;;;;;2.53;0.68;;;;;;;11.47;57.24;99937.59;4212874;28;20046;-57
2024/01/05 07:54:13;;;;;;;3.58;0.70;;;;;;;11.47;57.34;99941.09;4213169;28;20040;-57
2024/01/05 07:56:19;;;;;;;2.72;0.60;;;;;;;11.47;57.33;99940.22;4213427;28;20048;-57
2024/01/05 07:58:20;;;;;;;3.80;0.70;;;;;;;11.45;57.07;99942.94;4213088;28;20075;-57
2024/01/05 08:00:22;;;;;;;1.85;0.52;;;;;;;11.47;57.30;99945.50;4213035;28;20060;-57
2024/01/05 08:02:23;;;;;;;2.35;0.60;;;;;;;11.46;57.31;99946.44;4213249;28;20040;-58
2024/01/05 08:04:25;;;;;;;2.30;0.63;;;;;;;11.46;57.36;99949.09;4213028;28;20079;-58
2024/01/05 08:06:27;;;;;;;2.30;0.63;;;;;;;11.46;57.06;99957.81;4212735;28;20048;-57
2024/01/05 08:08:29;;;;;;;2.83;0.60;;;;;;;11.45;57.32;99957.91;4213060;28;20155;-56
2024/01/05 08:10:30;;;;;;;3.22;0.80;;;;;;;11.46;57.10;99949.91;4213235;28;20075;-57
2024/01/05 08:12:32;;;;;;;3.03;0.85;;;;;;;11.45;57.17;99960.53;4213230;28;20040;-57
2024/01/05 08:14:34;;;;;;;2.25;0.80;;;;;;;11.45;57.39;99958.75;4212930;28;20040;-58
2024/01/05 08:16:36;;;;;;;2.00;0.50;;;;;;;11.45;57.22;99958.75;4213157;28;20048;-58
2024/01/05 08:18:39;;;;;;;2.63;0.70;;;;;;;11.45;56.97;99960.53;4213078;28;20403;-57
2024/01/05 08:20:41;;;;;;;2.65;0.60;;;;;;;11.46;57.39;99965.72;4212717;28;20064;-56
2024/01/05 08:22:43;;;;;;;1.85;0.70;;;;;;;11.46;57.17;99965.72;4213119;28;20479;-57
2024/01/05 08:24:45;;;;;;;3.25;0.70;;;;;;;11.44;57.28;99962.31;4212822;28;20123;-57
2024/01/05 08:26:46;;;;;;;2.72;0.60;;;;;;;11.45;56.97;99968.44;4213079;28;20048;-57
2024/01/05 08:28:48;;;;;;;3.30;0.50;;;;;;;11.45;56.95;99964.00;4212962;28;20470;-58
2024/01/05 08:30:50;;;;;;;2.50;0.70;;;;;;;11.45;57.13;99971.06;4213143;28;20052;-55
2024/01/05 08:32:55;;;;;;;3.58;0.70;;;;;;;11.45;56.97;99974.53;4215024;28;20056;-58
2024/01/05 08:34:57;;;;;;;3.22;0.80;;;;;;;11.47;57.34;99974.47;4215527;28;20048;-53
2024/01/05 08:36:59;;;;;;;3.92;0.77;;;;;;;11.45;56.90;99965.81;4216225;28;20086;-55
2024/01/05 08:39:00;;;;;;;2.58;0.60;;;;;;;11.45;57.04;99961.38;4216285;28;20044;-56
2024/01/05 08:41:02;;;;;;;2.90;0.52;;;;;;;11.47;57.04;99977.09;4216183;28;20089;-57
2024/01/05 08:43:04;;;;;;;2.60;0.60;;;;;;;11.46;57.10;99968.34;4216117;28;20040;-57
2024/01/05 08:45:06;;;;;;;2.25;0.80;;;;;;;11.47;56.89;99966.56;4216198;28;20397;-58
2024/01/05 08:47:08;;;;;;;;;;;;;;;11.47;56.90;99969.19;4216450;28;20048;-58
2024/01/05 08:49:09;;;;;;;3.00;0.60;;;;;;;11.45;57.07;99977.19;4214382;28;19924;-57
2024/01/05 08:51:11;;;;;;;3.92;0.80;;;;;;;11.46;56.90;99976.25;4216076;28;20430;-57
2024/01/05 08:53:13;;;;;;;2.72;0.60;;;;;;;11.48;57.05;99981.44;4215922;28;20056;-57
2024/01/05 08:55:16;;;;;;;3.00;0.75;;;;;;;11.48;57.06;99984.94;4215923;28;20080;-57
2024/01/05 08:57:18;;;;;;;2.08;0.63;;;;;;;11.48;56.88;99978.78;4214594;28;20391;-57
2024/01/05 08:59:20;;;;;;;2.55;0.70;;;;;;;11.49;56.88;99988.41;4215791;28;20052;-57
2024/01/05 09:01:21;;;;;;;3.17;0.90;;;;;;;11.49;57.04;99991.03;4215928;28;20073;-57
2024/01/05 09:03:24;;;;;;;2.53;0.60;;;;;;;11.50;56.84;99998.00;4215244;28;20101;-57
2024/01/05 09:05:25;;;;;;;1.83;0.70;;;;;;;11.49;56.94;99991.03;4200537;28;20053;-57
2024/01/05 09:07:27;;;;;;;2.80;0.90;;;;;;;11.48;57.20;99986.69;4197601;28;20530;-59
2024/01/05 09:09:29;;;;;;;5.25;1.00;;;;;;;11.53;57.74;99997.00;4198367;28;20102;-58
2024/01/05 09:11:30;;;;;;;3.80;0.80;;;;;;;11.55;56.79;99996.00;4198523;28;20141;-58
2024/01/05 09:13:32;;;;;;;6.00;1.00;;;;;;;11.56;56.84;99996.84;4198209;28;20068;-57
2024/01/05 09:15:38;;;;;;;11.45;1.60;;;;;;;11.55;56.98;99996.00;4198517;28;20518;-56
2024/01/05 09:17:40;;;;;;;20.30;1.88;;;;;;;11.57;57.02;100007.31;4198431;28;20056;-56
2024/01/05 09:19:42;;;;;;;21.80;2.58;;;;;;;11.57;56.73;100009.94;4198117;28;20045;-56
2024/01/05 09:21:44;;;;;;;14.52;1.70;;;;;;;11.60;57.00;100012.41;4198386;28;20499;-57
2024/01/05 09:23:46;;;;;;;24.95;2.03;;;;;;;11.62;56.67;100014.97;4198390;28;20100;-57
2024/01/05 09:25:47;;;;;;;19.02;2.13;;;;;;;11.66;56.99;100020.00;4198306;28;20044;-54
2024/01/05 09:27:49;;;;;;;19.00;2.13;;;;;;;11.61;56.70;100008.84;4198068;28;20060;-54
2024/01/05 09:29:51;;;;;;;20.52;2.67;;;;;;;11.67;56.64;100023.47;4198821;28;20119;-56
2024/01/05 09:31:52;;;;;;;13.65;1.95;;;;;;;11.69;56.78;100029.53;4198311;28;20056;-53
2024/01/05 09:33:54;;;;;;;16.38;1.90;;;;;;;11.72;56.63;100025.88;4198105;28;20048;-55
2024/01/05 09:35:56;;;;;;;11.93;1.70;;;;;;;11.72;56.76;100028.53;4198108;28;20037;-57
2024/01/05 09:37:58;;;;;;;10.73;1.70;;;;;;;11.72;56.58;100029.34;4198633;28;20082;-57